ADDS TAF Board (Experimental) INFO Settings
IDs: Format: Expanded Condensed

KATL - Atlanta/Hartsfield-J, GA, US

Issued at 1157 UTC 24 May 2016
Updated at: 1343 UTC 24 May 2016
Time1252Z 24/14Z 24/15Z 24/16Z 24/17Z 24/18Z 24/19Z 24/20Z 24/21Z 24/22Z 24/23Z 25/00Z 25/01Z 25/02Z
Type OBS PRVL PRVL PRVL PRVL PRVL PRVL PRVL PRVL PRVL PRVL PRVL PRVL PRVL
VIS 10 >6 >6 >6 >6 >6 >6 >6 >6 >6 >6 >6 >6 >6
CIG 250 80 -- -- -- -- -- -- -- -- -- -- -- --
Cover BKN BKN SCT SCT FEW FEW FEW FEW FEW FEW FEW FEW FEW FEW
FltCat VFR VFR VFR VFR VFR VFR VFR VFR VFR VFR VFR VFR VFR VFR
WX -- -- -- -- -- -- -- -- -- -- -- -- -- --
WDir VRB 40 350 350 280 280 280 280 280 280 280 220 220 220
WSpd 6 7 6 6 7 7 7 7 7 7 7 4 4 4
WGst -- -- -- -- -- -- -- -- -- -- -- -- -- --
R08/26
XWnd VRB 5 6 6 1 1 1 1 1 1 1 -3 -3 -3
HWnd VRB 4 -1 -1 -7 -7 -7 -7 -7 -7 -7 -3 -3 -3
R09/27
XWnd VRB 5 6 6 1 1 1 1 1 1 1 -3 -3 -3
HWnd VRB 4 -1 -1 -7 -7 -7 -7 -7 -7 -7 -3 -3 -3
R10/28
XWnd VRB 5 6 6 1 1 1 1 1 1 1 -3 -3 -3
HWnd VRB 4 -1 -1 -7 -7 -7 -7 -7 -7 -7 -3 -3 -3

NOTE: TEMPO conditions in [brackets]. Keep in mind TEMPO conditions might be better (lower impact) than prevailing conditions.

Raw TAF
KATL 241157Z 2412/2518 04007KT P6SM BKN080
  FM241500 35006KT P6SM SCT080
  FM241700 28007KT P6SM FEW050
  FM250000 22004KT P6SM FEW250
  FM251500 21005KT P6SM FEW040


Raw METAR
KATL 241252Z VRB06KT 10SM SCT080 BKN250 18/12 A3015 RMK AO2 SLP203 T01830117
KATL 241152Z 07006KT 10SM BKN085 17/11 A3014 RMK AO2 SLP199 T01670111 10206 20161 53026
KATL 241052Z 05007KT 10SM SCT080 SCT250 16/11 A3011 RMK AO2 SLP189 T01610106

METAR Board
Radar Display
Forecast Discussion

TAF Board Legend

Potential Impact
Threat None Slight Moderate High
Visibility (sm) ≥5.1 5.1>X≥3 3>X≥1 <1
Ceiling (100 ft) ≥30.1 30.1>X≥10 10>X≥5 <5
Wind Speed (kt) <10 10≤X<20 20≤X<30 ≥30
Wind Gust (kt) <15 15≤X<25 25≤X<35 ≥35
Weather No Wx Reported VCTS,-TS,-FZRA,SN TS,FZRA +TS,+FZRA,+SN